createdAt,value
2018-12-08T00:01:32.824Z,9.25
2018-12-08T00:04:00.434Z,9.30
2018-12-08T00:06:28.196Z,9.24
2018-12-08T00:08:56.088Z,9.24
2018-12-08T00:11:23.878Z,9.23
2018-12-08T00:13:51.845Z,9.23
2018-12-08T00:16:19.665Z,9.30
2018-12-08T00:18:47.484Z,9.33
2018-12-08T00:21:15.256Z,9.31
2018-12-08T00:23:42.900Z,9.28
2018-12-08T00:26:11.370Z,9.29
2018-12-08T00:28:38.997Z,9.30
2018-12-08T00:31:18.415Z,9.25
2018-12-08T00:33:46.038Z,9.18
2018-12-08T00:36:13.655Z,9.02
2018-12-08T00:38:41.265Z,9.02
2018-12-08T00:41:08.887Z,8.94
2018-12-08T00:43:37.314Z,8.90
2018-12-08T00:46:04.944Z,8.85
2018-12-08T00:48:32.561Z,8.67
2018-12-08T00:51:00.184Z,8.52
2018-12-08T00:53:27.802Z,8.47
2018-12-08T00:55:55.431Z,8.31
2018-12-08T00:58:23.058Z,8.16
2018-12-08T01:00:50.711Z,8.07
2018-12-08T01:03:18.333Z,8.01
2018-12-08T01:05:46.874Z,7.93
2018-12-08T01:08:14.494Z,7.84
2018-12-08T01:10:42.245Z,7.78
2018-12-08T01:13:09.885Z,7.68
2018-12-08T01:15:37.504Z,7.71
2018-12-08T01:18:05.127Z,7.70
2018-12-08T01:20:33.259Z,7.72
2018-12-08T01:23:00.894Z,7.67
2018-12-08T01:25:28.805Z,7.68
2018-12-08T01:27:57.404Z,7.63
2018-12-08T01:30:25.030Z,7.63
2018-12-08T01:32:54.496Z,7.66
2018-12-08T01:35:22.386Z,7.72
2018-12-08T01:37:50.060Z,7.62
2018-12-08T01:40:17.854Z,7.60
2018-12-08T01:42:47.611Z,7.65
2018-12-08T01:45:15.221Z,7.62
2018-12-08T01:47:42.893Z,7.67
2018-12-08T01:50:10.782Z,7.64
2018-12-08T01:52:39.340Z,7.66
2018-12-08T01:55:07.043Z,7.63
2018-12-08T01:57:34.769Z,7.58
2018-12-08T02:00:03.494Z,7.59
2018-12-08T02:02:32.615Z,7.53
2018-12-08T02:05:00.228Z,7.55
2018-12-08T02:07:27.854Z,7.42
2018-12-08T02:09:55.514Z,7.33
2018-12-08T02:12:23.256Z,7.28
2018-12-08T02:14:51.045Z,7.22
2018-12-08T02:17:18.836Z,7.11
2018-12-08T02:19:48.386Z,7.15
2018-12-08T02:22:16.960Z,7.10
2018-12-08T02:24:44.582Z,7.13
2018-12-08T02:27:12.209Z,7.21
2018-12-08T02:29:39.828Z,7.19
2018-12-08T02:32:08.368Z,7.21
2018-12-08T02:34:36.995Z,7.26
2018-12-08T02:37:04.631Z,7.23
2018-12-08T02:39:32.703Z,7.19
2018-12-08T02:42:00.426Z,7.08
2018-12-08T02:44:28.105Z,7.02
2018-12-08T02:46:55.732Z,7.03
2018-12-08T02:49:24.236Z,6.97
2018-12-08T02:51:54.757Z,7.02
2018-12-08T02:54:22.467Z,7.08
2018-12-08T02:56:50.985Z,7.20
2018-12-08T02:59:19.503Z,7.21
2018-12-08T03:01:47.392Z,7.23
2018-12-08T03:04:16.002Z,7.30
2018-12-08T03:06:44.610Z,7.29
2018-12-08T03:09:13.013Z,7.40
2018-12-08T03:11:40.812Z,7.35
2018-12-08T03:14:09.533Z,7.31
2018-12-08T03:16:38.155Z,7.25
2018-12-08T03:19:05.766Z,7.22
2018-12-08T03:21:35.015Z,7.22
2018-12-08T03:24:03.558Z,7.12
2018-12-08T03:26:32.995Z,7.16
2018-12-08T03:29:02.602Z,7.14
2018-12-08T03:31:30.223Z,7.03
2018-12-08T03:33:57.901Z,7.06
2018-12-08T03:36:25.620Z,7.05
2018-12-08T03:38:54.168Z,7.15
2018-12-08T03:41:22.785Z,7.02
2018-12-08T03:43:51.316Z,6.96
2018-12-08T03:46:19.916Z,6.98
2018-12-08T03:48:48.507Z,6.89
2018-12-08T03:51:17.067Z,6.83
2018-12-08T03:53:44.834Z,6.77
2018-12-08T03:56:13.381Z,6.69
2018-12-08T03:58:41.163Z,6.70
2018-12-08T04:01:09.699Z,6.60
2018-12-08T04:03:37.310Z,6.66
2018-12-08T04:06:04.954Z,6.58
2018-12-08T04:08:34.615Z,6.59
2018-12-08T04:11:02.808Z,6.60
2018-12-08T04:13:30.422Z,6.68
2018-12-08T04:15:58.185Z,6.64
2018-12-08T04:18:26.902Z,6.60
2018-12-08T04:20:54.504Z,6.63
2018-12-08T04:23:23.057Z,6.57
2018-12-08T04:25:50.761Z,6.53
2018-12-08T04:28:18.485Z,6.56
2018-12-08T04:30:47.250Z,6.56
2018-12-08T04:33:15.662Z,6.70
2018-12-08T04:35:44.394Z,6.74
2018-12-08T04:38:12.973Z,6.75
2018-12-08T04:40:41.718Z,6.74
2018-12-08T04:43:10.253Z,6.66
2018-12-08T04:45:38.934Z,6.66
2018-12-08T04:48:07.663Z,6.67
2018-12-08T04:50:36.234Z,6.69
2018-12-08T04:53:04.658Z,6.75
2018-12-08T04:55:33.781Z,6.67
2018-12-08T04:58:01.420Z,6.71
2018-12-08T05:00:29.995Z,6.70
2018-12-08T05:02:57.620Z,6.59
2018-12-08T05:05:25.237Z,6.72
2018-12-08T05:07:53.633Z,6.67
2018-12-08T05:10:21.276Z,6.61
2018-12-08T05:12:48.896Z,6.50
2018-12-08T05:15:17.355Z,6.38
2018-12-08T05:17:44.975Z,6.21
2018-12-08T05:20:12.667Z,6.17
2018-12-08T05:22:40.306Z,6.16
2018-12-08T05:25:08.836Z,6.05
2018-12-08T05:27:36.444Z,6.04
2018-12-08T05:30:05.393Z,6.09
2018-12-08T05:32:33.696Z,6.07
2018-12-08T05:35:01.637Z,6.17
2018-12-08T05:37:30.074Z,6.18
2018-12-08T05:39:58.564Z,6.08
2018-12-08T05:42:26.196Z,6.15
2018-12-08T05:44:53.927Z,6.18
2018-12-08T05:47:21.589Z,6.17
2018-12-08T05:49:49.546Z,6.18
2018-12-08T05:52:18.083Z,6.32
2018-12-08T05:54:45.687Z,6.29
2018-12-08T05:57:13.347Z,6.25
2018-12-08T05:59:40.954Z,6.22
2018-12-08T06:02:09.574Z,6.26
2018-12-08T06:04:37.189Z,6.13
2018-12-08T06:07:05.747Z,6.05
2018-12-08T06:09:34.298Z,6.04
2018-12-08T06:12:04.518Z,6.07
2018-12-08T06:14:33.880Z,6.05
2018-12-08T06:17:02.878Z,6.03
2018-12-08T06:19:30.503Z,5.97
2018-12-08T06:21:58.942Z,5.90
2018-12-08T06:24:27.350Z,5.92
2018-12-08T06:26:55.051Z,5.97
2018-12-08T06:29:24.405Z,5.97
2018-12-08T06:31:52.833Z,5.95
2018-12-08T06:34:21.291Z,5.92
2018-12-08T06:36:49.937Z,5.92
2018-12-08T06:39:17.600Z,5.80
2018-12-08T06:41:45.256Z,5.79
2018-12-08T06:44:13.834Z,5.63
2018-12-08T06:46:41.457Z,5.47
2018-12-08T06:49:09.889Z,5.41
2018-12-08T06:51:37.500Z,5.20
2018-12-08T06:54:06.073Z,5.12
2018-12-08T06:56:33.848Z,5.03
2018-12-08T06:59:02.453Z,5.00
2018-12-08T07:01:32.306Z,4.98
2018-12-08T07:03:59.915Z,4.86
2018-12-08T07:06:28.383Z,4.81
2018-12-08T07:08:56.010Z,4.69
2018-12-08T07:11:24.585Z,4.69
2018-12-08T07:13:52.199Z,4.75
2018-12-08T07:16:19.818Z,4.80
2018-12-08T07:18:47.438Z,4.90
2018-12-08T07:21:15.087Z,5.03
2018-12-08T07:23:42.709Z,5.10
2018-12-08T07:26:10.319Z,5.23
2018-12-08T07:28:38.887Z,5.19
2018-12-08T07:31:07.431Z,5.29
2018-12-08T07:33:35.081Z,5.37
2018-12-08T07:36:03.084Z,5.38
2018-12-08T07:38:30.691Z,5.39
2018-12-08T07:40:59.393Z,5.28
2018-12-08T07:43:27.067Z,5.28
2018-12-08T07:45:54.835Z,5.33
2018-12-08T07:48:22.488Z,5.41
2018-12-08T07:50:50.107Z,5.57
2018-12-08T07:53:17.764Z,5.61
2018-12-08T07:55:46.197Z,5.71
2018-12-08T07:58:14.610Z,5.78
2018-12-08T08:00:43.172Z,5.76
2018-12-08T08:03:11.703Z,5.87
2018-12-08T08:05:40.275Z,5.87
2018-12-08T08:08:07.862Z,5.98
2018-12-08T08:10:35.565Z,5.96
2018-12-08T08:13:04.222Z,5.88
2018-12-08T08:15:32.727Z,5.98
2018-12-08T08:18:01.360Z,6.03
2018-12-08T08:20:28.984Z,6.13
2018-12-08T08:22:56.638Z,6.07
2018-12-08T08:25:24.291Z,6.21
2018-12-08T08:27:52.735Z,6.35
2018-12-08T08:30:20.384Z,6.50
2018-12-08T08:32:48.017Z,6.65
2018-12-08T08:35:15.708Z,6.73
2018-12-08T08:37:43.319Z,6.72
2018-12-08T08:40:11.104Z,6.97
2018-12-08T08:42:38.719Z,7.05
2018-12-08T08:45:07.538Z,7.01
2018-12-08T08:47:35.137Z,6.88
2018-12-08T08:50:05.098Z,6.71
2018-12-08T08:52:33.773Z,6.74
2018-12-08T08:55:01.396Z,6.70
2018-12-08T08:57:29.014Z,6.69
2018-12-08T08:59:56.629Z,6.78
2018-12-08T09:02:24.248Z,6.85
2018-12-08T09:04:51.875Z,6.96
2018-12-08T09:07:20.991Z,7.10
2018-12-08T09:09:50.234Z,7.15
2018-12-08T09:12:17.967Z,7.30
2018-12-08T09:14:45.587Z,7.31
2018-12-08T09:17:27.604Z,7.29
2018-12-08T09:19:55.892Z,7.26
2018-12-08T09:22:23.518Z,7.16
2018-12-08T09:24:51.135Z,7.19
2018-12-08T09:27:18.771Z,7.22
2018-12-08T09:29:46.710Z,7.19
2018-12-08T09:32:14.589Z,7.23
2018-12-08T09:34:42.484Z,7.32
2018-12-08T09:37:10.173Z,7.40
2018-12-08T09:39:37.791Z,7.49
2018-12-08T09:42:05.535Z,7.49
2018-12-08T09:44:34.304Z,7.39
2018-12-08T09:47:02.784Z,7.48
2018-12-08T09:49:30.406Z,7.44
2018-12-08T09:51:58.014Z,7.43
2018-12-08T09:54:25.642Z,7.47
2018-12-08T09:56:53.251Z,7.51
2018-12-08T09:59:20.919Z,7.51
2018-12-08T10:01:49.346Z,7.57
2018-12-08T10:04:16.965Z,7.58
2018-12-08T10:06:44.594Z,7.59
2018-12-08T10:09:12.209Z,7.68
2018-12-08T10:11:40.644Z,7.66
2018-12-08T10:14:08.285Z,7.47
2018-12-08T10:16:35.906Z,7.37
2018-12-08T10:19:04.518Z,7.50
2018-12-08T10:21:33.754Z,7.49
2018-12-08T10:24:01.764Z,7.61
2018-12-08T10:26:29.383Z,7.62
2018-12-08T10:28:57.050Z,7.73
2018-12-08T10:31:24.731Z,7.73
2018-12-08T10:33:52.366Z,7.75
2018-12-08T10:36:20.054Z,7.81
2018-12-08T10:38:47.734Z,7.88
2018-12-08T10:41:15.431Z,7.91
2018-12-08T10:43:43.012Z,7.98
2018-12-08T10:46:10.763Z,7.94
2018-12-08T10:48:38.380Z,8.07
2018-12-08T10:51:06.078Z,8.17
2018-12-08T10:53:34.639Z,8.25
2018-12-08T10:56:02.736Z,8.22
2018-12-08T10:58:30.464Z,8.36
2018-12-08T11:01:03.867Z,8.25
2018-12-08T11:03:47.799Z,8.13
2018-12-08T11:06:17.025Z,8.18
2018-12-08T11:08:44.884Z,8.29
2018-12-08T11:11:12.578Z,8.29
2018-12-08T11:13:40.267Z,8.31
2018-12-08T11:16:07.864Z,8.30
2018-12-08T11:18:35.490Z,8.18
2018-12-08T11:21:05.068Z,8.23
2018-12-08T11:23:33.474Z,8.07
2018-12-08T11:26:02.776Z,8.00
2018-12-08T11:28:30.381Z,7.91
2018-12-08T11:30:58.002Z,7.94
2018-12-08T11:33:25.624Z,8.05
2018-12-08T11:35:53.262Z,8.08
2018-12-08T11:38:20.870Z,8.17
2018-12-08T11:40:48.664Z,8.36
2018-12-08T11:43:16.350Z,8.33
2018-12-08T11:45:43.967Z,8.46
2018-12-08T11:48:11.592Z,8.70
2018-12-08T11:50:39.206Z,8.84
2018-12-08T11:53:06.839Z,8.88
2018-12-08T11:55:34.456Z,9.03
2018-12-08T11:58:02.469Z,8.95
2018-12-08T12:00:30.118Z,9.02
2018-12-08T12:02:57.727Z,9.10
2018-12-08T12:05:25.501Z,9.13
2018-12-08T12:07:53.119Z,9.25
2018-12-08T12:10:20.911Z,9.23
2018-12-08T12:12:49.422Z,9.26
2018-12-08T12:15:17.043Z,9.29
2018-12-08T12:17:44.741Z,9.32
2018-12-08T12:20:12.358Z,9.34
2018-12-08T12:22:39.973Z,9.17
2018-12-08T12:25:08.045Z,9.11
2018-12-08T12:27:35.675Z,8.95
2018-12-08T12:32:57.315Z,8.91
2018-12-08T12:35:24.940Z,8.96
2018-12-08T12:37:52.579Z,8.91
2018-12-08T12:40:20.199Z,8.91
2018-12-08T12:42:47.825Z,8.99
2018-12-08T12:45:15.433Z,8.91
2018-12-08T12:47:43.058Z,8.94
2018-12-08T12:50:10.668Z,8.80
2018-12-08T12:52:38.281Z,8.86
2018-12-08T12:55:05.927Z,8.76
2018-12-08T12:57:34.166Z,8.79
2018-12-08T13:00:02.512Z,8.57
2018-12-08T13:02:30.175Z,8.55
2018-12-08T13:04:58.713Z,8.50
2018-12-08T13:07:26.321Z,8.54
2018-12-08T13:09:53.935Z,8.39
2018-12-08T13:12:21.968Z,8.48
2018-12-08T13:14:49.576Z,8.43
2018-12-08T13:17:17.208Z,8.41
2018-12-08T13:19:44.848Z,8.41
2018-12-08T13:22:13.400Z,8.37
2018-12-08T13:24:42.085Z,8.35
2018-12-08T13:27:09.822Z,8.29
2018-12-08T13:29:37.436Z,8.31
2018-12-08T13:32:05.190Z,8.25
2018-12-08T13:34:33.750Z,8.29
2018-12-08T13:37:03.362Z,8.36
2018-12-08T13:39:31.024Z,8.42
2018-12-08T13:41:59.772Z,8.41
2018-12-08T13:44:35.572Z,8.45
2018-12-08T13:47:03.477Z,8.47
2018-12-08T13:49:32.166Z,8.44
2018-12-08T13:52:00.606Z,8.45
2018-12-08T13:54:41.491Z,8.39
2018-12-08T13:57:09.411Z,8.39
2018-12-08T13:59:37.036Z,8.42
2018-12-08T14:02:04.673Z,8.44
2018-12-08T14:04:32.845Z,8.45
2018-12-08T14:07:00.457Z,8.40
2018-12-08T14:09:28.957Z,8.32
2018-12-08T14:11:56.721Z,8.29
2018-12-08T14:14:24.337Z,8.22
2018-12-08T14:16:51.952Z,8.12
2018-12-08T14:19:19.702Z,7.99
2018-12-08T14:21:47.430Z,7.81
2018-12-08T14:24:15.153Z,7.70
2018-12-08T14:26:42.762Z,7.58
2018-12-08T14:29:10.371Z,7.48
2018-12-08T14:31:38.307Z,7.36
2018-12-08T14:34:06.168Z,7.24
2018-12-08T14:36:33.920Z,7.25
2018-12-08T14:39:02.261Z,7.18
2018-12-08T14:41:29.876Z,7.10
2018-12-08T14:43:57.518Z,6.98
2018-12-08T14:46:25.137Z,7.04
2018-12-08T14:48:52.772Z,6.93
2018-12-08T14:51:28.391Z,6.94
2018-12-08T14:53:59.268Z,6.91
2018-12-08T14:56:26.886Z,6.83
2018-12-08T14:58:54.496Z,6.83
2018-12-08T15:01:23.148Z,6.79
2018-12-08T15:03:50.750Z,6.93
2018-12-08T15:06:18.366Z,6.91
2018-12-08T15:08:45.987Z,6.90
2018-12-08T15:11:13.602Z,6.82
2018-12-08T15:13:41.327Z,6.83
2018-12-08T15:16:09.075Z,6.81
2018-12-08T15:18:36.689Z,6.69
2018-12-08T15:21:04.348Z,6.70
2018-12-08T15:23:32.396Z,6.67
2018-12-08T15:26:00.013Z,6.72
2018-12-08T15:28:28.479Z,6.80
2018-12-08T15:30:56.105Z,6.74
2018-12-08T15:33:23.738Z,6.75
2018-12-08T15:35:52.280Z,6.81
2018-12-08T15:38:20.702Z,6.82
2018-12-08T15:40:49.310Z,6.77
2018-12-08T15:43:16.929Z,6.85
2018-12-08T15:45:44.538Z,6.99
2018-12-08T15:48:12.201Z,6.95
2018-12-08T15:50:39.868Z,6.93
2018-12-08T15:53:07.609Z,6.96
2018-12-08T15:55:37.034Z,6.91
2018-12-08T15:58:05.958Z,7.00
2018-12-08T16:00:34.761Z,7.02
2018-12-08T16:03:04.383Z,6.99
2018-12-08T16:05:33.590Z,7.06
2018-12-08T16:08:05.374Z,7.08
2018-12-08T16:10:34.053Z,7.15
2018-12-08T16:13:02.318Z,7.11
2018-12-08T16:15:30.782Z,7.15
2018-12-08T16:17:58.392Z,7.14
2018-12-08T16:20:26.111Z,7.20
2018-12-08T16:22:54.549Z,7.17
2018-12-08T16:25:22.170Z,7.17
2018-12-08T16:27:51.107Z,7.23
2018-12-08T16:30:19.669Z,7.24
2018-12-08T16:32:48.159Z,7.31
2018-12-08T16:35:15.774Z,7.30
2018-12-08T16:37:43.392Z,7.31
2018-12-08T16:40:11.874Z,7.41
2018-12-08T16:42:39.525Z,7.46
2018-12-08T16:45:07.219Z,7.41
2018-12-08T16:47:34.935Z,7.41
2018-12-08T16:50:02.626Z,7.48
2018-12-08T16:52:30.233Z,7.45
2018-12-08T16:54:58.793Z,7.41
2018-12-08T16:57:27.344Z,7.48
2018-12-08T16:59:55.555Z,7.57
2018-12-08T17:02:23.171Z,7.65
2018-12-08T17:04:51.731Z,7.67
2018-12-08T17:07:20.170Z,7.62
2018-12-08T17:09:49.067Z,7.63
2018-12-08T17:12:16.703Z,7.62
2018-12-08T17:14:44.322Z,7.65
2018-12-08T17:17:11.964Z,7.67
2018-12-08T17:19:39.581Z,7.65
2018-12-08T17:22:07.222Z,7.75
2018-12-08T17:24:34.837Z,7.83
2018-12-08T17:27:04.590Z,7.78
2018-12-08T17:29:32.640Z,7.80
2018-12-08T17:32:00.498Z,7.82
2018-12-08T17:34:28.250Z,7.86
2018-12-08T17:36:56.048Z,7.88
2018-12-08T17:39:23.802Z,7.87
2018-12-08T17:41:51.652Z,7.79
2018-12-08T17:44:19.475Z,7.80
2018-12-08T17:46:47.103Z,7.88
2018-12-08T17:49:14.882Z,7.84
2018-12-08T17:51:42.687Z,7.80
2018-12-08T17:54:10.605Z,7.88
2018-12-08T17:56:38.416Z,7.94
2018-12-08T17:59:06.215Z,7.89
2018-12-08T18:01:34.108Z,7.86
2018-12-08T18:04:02.015Z,7.87
2018-12-08T18:06:29.712Z,7.88
2018-12-08T18:08:57.498Z,7.82
2018-12-08T18:11:25.119Z,7.87
2018-12-08T18:13:54.002Z,7.91
2018-12-08T18:16:21.790Z,7.90
2018-12-08T18:18:49.596Z,7.95
2018-12-08T18:21:17.636Z,7.93
2018-12-08T18:23:45.535Z,7.93
2018-12-08T18:26:13.393Z,7.92
2018-12-08T18:28:42.014Z,7.92
2018-12-08T18:31:09.819Z,7.93
2018-12-08T18:33:37.630Z,7.94
2018-12-08T18:36:06.183Z,7.95
2018-12-08T18:38:33.931Z,7.98
2018-12-08T18:41:02.349Z,8.05
2018-12-08T18:43:29.969Z,8.02
2018-12-08T18:45:57.587Z,8.02
2018-12-08T18:48:25.244Z,8.01
2018-12-08T18:50:52.847Z,7.92
2018-12-08T18:53:20.736Z,7.99
2018-12-08T18:55:48.526Z,7.97
2018-12-08T18:58:16.314Z,8.04
2018-12-08T19:00:44.106Z,8.07
2018-12-08T19:03:11.896Z,8.10
2018-12-08T19:05:39.688Z,8.11
2018-12-08T19:08:08.457Z,8.09
2018-12-08T19:10:36.167Z,8.05
2018-12-08T19:13:03.944Z,8.04
2018-12-08T19:15:32.527Z,7.98
2018-12-08T19:18:00.322Z,7.83
2018-12-08T19:20:29.148Z,7.73
2018-12-08T19:22:56.950Z,7.65
2018-12-08T19:25:25.468Z,7.51
2018-12-08T19:27:53.093Z,7.51
2018-12-08T19:30:20.711Z,7.50
2018-12-08T19:32:48.332Z,7.49
2018-12-08T19:35:15.978Z,7.49
2018-12-08T19:37:43.587Z,7.42
2018-12-08T19:40:12.161Z,7.35
2018-12-08T19:42:39.779Z,7.28
2018-12-08T19:45:07.981Z,7.19
2018-12-08T19:47:35.606Z,7.15
2018-12-08T19:50:05.188Z,7.07
2018-12-08T19:52:33.462Z,7.08
2018-12-08T19:55:02.784Z,6.98
2018-12-08T19:57:30.459Z,6.96
2018-12-08T19:59:58.424Z,7.06
2018-12-08T20:02:26.077Z,6.99
2018-12-08T20:04:53.761Z,7.00
2018-12-08T20:07:21.414Z,6.98
2018-12-08T20:09:49.577Z,7.05
2018-12-08T20:12:18.585Z,7.14
2018-12-08T20:14:47.293Z,7.14
2018-12-08T20:17:14.951Z,7.18
2018-12-08T20:19:42.591Z,7.12
2018-12-08T20:22:10.280Z,7.00
2018-12-08T20:24:37.949Z,6.94
2018-12-08T20:27:06.072Z,6.84
2018-12-08T20:29:33.708Z,6.76
2018-12-08T20:32:01.560Z,6.68
2018-12-08T20:34:29.192Z,6.63
2018-12-08T20:36:56.853Z,6.61
2018-12-08T20:39:25.420Z,6.59
2018-12-08T20:41:53.084Z,6.63
2018-12-08T20:44:20.760Z,6.65
2018-12-08T20:46:48.377Z,6.65
2018-12-08T20:49:16.000Z,6.71
2018-12-08T20:51:44.555Z,6.64
2018-12-08T20:54:12.211Z,6.51
2018-12-08T20:56:39.866Z,6.55
2018-12-08T20:59:07.474Z,6.45
2018-12-08T21:01:35.116Z,6.51
2018-12-08T21:04:03.611Z,6.46
2018-12-08T21:06:31.922Z,6.44
2018-12-08T21:08:59.537Z,6.38
2018-12-08T21:11:27.197Z,6.31
2018-12-08T21:13:54.832Z,6.31
2018-12-08T21:16:23.292Z,6.29
2018-12-08T21:18:51.958Z,6.38
2018-12-08T21:21:19.584Z,6.36
2018-12-08T21:23:48.153Z,6.27
2018-12-08T21:26:15.797Z,6.31
2018-12-08T21:28:44.348Z,6.25
2018-12-08T21:31:12.148Z,6.33
2018-12-08T21:33:39.794Z,6.28
2018-12-08T21:36:07.720Z,6.21
2018-12-08T21:38:35.362Z,6.21
2018-12-08T21:41:03.544Z,6.17
2018-12-08T21:43:31.800Z,6.07
2018-12-08T21:45:59.416Z,6.08
2018-12-08T21:48:27.095Z,6.10
2018-12-08T21:50:57.624Z,6.04
2018-12-08T21:53:25.240Z,5.97
2018-12-08T21:55:52.863Z,6.00
2018-12-08T21:58:20.504Z,5.91
2018-12-08T22:00:48.144Z,5.89
2018-12-08T22:03:16.820Z,5.76
2018-12-08T22:05:44.460Z,5.75
2018-12-08T22:08:13.086Z,5.69
2018-12-08T22:10:40.784Z,5.67
2018-12-08T22:13:09.172Z,5.73
2018-12-08T22:15:36.901Z,5.71
2018-12-08T22:18:04.498Z,5.69
2018-12-08T22:23:44.176Z,5.70
2018-12-08T22:26:11.827Z,5.64
2018-12-08T22:28:39.512Z,5.65
2018-12-08T22:31:08.072Z,5.71
2018-12-08T22:33:35.699Z,5.72
2018-12-08T22:36:04.131Z,5.72
2018-12-08T22:38:32.509Z,5.65
2018-12-08T22:41:00.178Z,5.64
2018-12-08T22:43:27.789Z,5.70
2018-12-08T22:45:56.307Z,5.77
2018-12-08T22:48:24.003Z,5.83
2018-12-08T22:50:51.607Z,5.93
2018-12-08T22:53:19.294Z,6.10
2018-12-08T22:55:51.643Z,6.20
2018-12-08T22:58:19.332Z,6.28
2018-12-08T23:00:48.427Z,6.37
2018-12-08T23:03:16.036Z,6.47
2018-12-08T23:05:43.713Z,6.56
2018-12-08T23:08:11.384Z,6.60
2018-12-08T23:10:39.041Z,6.68
2018-12-08T23:13:06.649Z,6.62
2018-12-08T23:15:34.256Z,6.61
2018-12-08T23:18:02.856Z,6.53
2018-12-08T23:20:30.474Z,6.55
2018-12-08T23:22:58.098Z,6.63
2018-12-08T23:25:25.779Z,6.67
2018-12-08T23:27:53.383Z,6.59
2018-12-08T23:30:21.063Z,6.55
2018-12-08T23:32:48.755Z,6.59
2018-12-08T23:35:16.359Z,6.60
2018-12-08T23:37:44.127Z,6.56
2018-12-08T23:40:11.905Z,6.54
2018-12-08T23:42:39.498Z,6.57
2018-12-08T23:45:07.187Z,6.52
2018-12-08T23:47:34.817Z,6.61
2018-12-08T23:50:02.500Z,6.60
2018-12-08T23:52:30.101Z,6.63
2018-12-08T23:54:57.727Z,6.66
2018-12-08T23:57:26.451Z,6.67
2018-12-08T23:59:55.071Z,6.63
